City View Heights, Ohio
Current Conditions -  °F | °C
As of 4:53 PM on Saturday 25 Oct 2014 (Local Time) from KHAO Reporting Station
Clear Clear  
Wind Chill: 75°   Ceiling: Unl
Heat Index: 75°   Visibility: 9mi
Dew Point: 55°   Wind: 8mph
Humidity: 50%   Direction: 250°WSW
Pressure: 29.91"   Gusts: 17mph
Location:  39.4247°N, 84.5012°W
Report Text: KHAO 252053Z AUTO 25007G15KT 9SM CLR 24/13 A2991 RMK AO2 SLP128 T02390128 55007
Loading
Personal Weather Stations






























Interactive Weather Map
Tropical Storm Tracking
New forecast layout! Learn more

10-Day Weather Forecast

Advertisements
Track Severe Weather on mobile